FWV9 LESO-LEAL
Flight info
| Callsign | FWV9 |
|---|---|
| Flight time | 1h 0m |
| Altitude | 32000 |
| Route | PPN M176 CMA/N0410F240 M176 CLS |
| Aircraft | A320/M-SDE3FGHIRWY/LB1 |
Departure
| Time | 2026-05-04 17:23 |
|---|---|
| Airport | San Sebastián Airport (LESO) |
Arrival
| Time | 2026-05-04 18:24 |
|---|---|
| Airport | Alicante-Elche Miguel Hernández Airport (LEAL) |
| Time | Latitude | Longitude | Altitude | Speed | Heading |
|---|---|---|---|---|---|
| 2026-05-04 16:55 | 43.35728 | -1.79139 | 17 ft | 0 kts | 219° |
| 2026-05-04 17:19 | 43.35724 | -1.79127 | 18 ft | 1 kts | 98° |
| 2026-05-04 17:19 | 43.35732 | -1.79111 | 18 ft | 2 kts | 66° |
| 2026-05-04 17:20 | 43.35735 | -1.79068 | 18 ft | 10 kts | 103° |
| 2026-05-04 17:20 | 43.35612 | -1.79103 | 18 ft | 12 kts | 218° |
| 2026-05-04 17:20 | 43.35530 | -1.79193 | 18 ft | 19 kts | 219° |
| 2026-05-04 17:21 | 43.35304 | -1.79439 | 20 ft | 25 kts | 219° |
| 2026-05-04 17:21 | 43.35093 | -1.79703 | 19 ft | 9 kts | 252° |
| 2026-05-04 17:22 | 43.35053 | -1.79734 | 20 ft | 6 kts | 142° |
| 2026-05-04 17:22 | 43.35068 | -1.79699 | 21 ft | 4 kts | 36° |
| 2026-05-04 17:23 | 43.35076 | -1.79690 | 21 ft | 1 kts | 38° |
| 2026-05-04 17:23 | 43.35312 | -1.79435 | 20 ft | 86 kts | 38° |
| 2026-05-04 17:23 | 43.36878 | -1.77731 | 681 ft | 165 kts | 32° |
| 2026-05-04 17:24 | 43.37885 | -1.76945 | 1520 ft | 169 kts | 26° |
| 2026-05-04 17:24 | 43.41381 | -1.74581 | 2925 ft | 206 kts | 19° |
| 2026-05-04 17:25 | 43.42779 | -1.74568 | 3500 ft | 206 kts | 336° |
| 2026-05-04 17:25 | 43.44195 | -1.77853 | 4648 ft | 214 kts | 283° |
| 2026-05-04 17:26 | 43.44738 | -1.81884 | 5801 ft | 217 kts | 282° |
| 2026-05-04 17:26 | 43.45578 | -1.88045 | 7530 ft | 220 kts | 282° |
| 2026-05-04 17:27 | 43.46158 | -1.92208 | 8641 ft | 224 kts | 282° |
| 2026-05-04 17:27 | 43.46693 | -1.96475 | 9757 ft | 229 kts | 269° |
| 2026-05-04 17:28 | 43.45115 | -2.00124 | 10741 ft | 237 kts | 209° |
| 2026-05-04 17:29 | 43.40716 | -2.03062 | 12349 ft | 241 kts | 209° |
| 2026-05-04 17:29 | 43.36237 | -2.06196 | 14467 ft | 242 kts | 209° |
| 2026-05-04 17:30 | 43.31455 | -2.07369 | 16209 ft | 261 kts | 150° |
| 2026-05-04 17:31 | 43.29447 | -2.03094 | 17291 ft | 276 kts | 122° |
| 2026-05-04 17:31 | 43.25578 | -1.97412 | 18902 ft | 274 kts | 144° |
| 2026-05-04 17:32 | 43.22450 | -1.94365 | 19588 ft | 286 kts | 153° |
| 2026-05-04 17:33 | 43.16889 | -1.89647 | 19947 ft | 337 kts | 152° |
| 2026-05-04 17:33 | 43.14858 | -1.87902 | 20075 ft | 352 kts | 152° |
| 2026-05-04 17:34 | 43.08291 | -1.82236 | 20474 ft | 393 kts | 151° |
| 2026-05-04 17:34 | 43.05955 | -1.80223 | 20817 ft | 399 kts | 151° |
| 2026-05-04 17:35 | 42.98387 | -1.75721 | 22091 ft | 398 kts | 174° |
| 2026-05-04 17:35 | 42.92881 | -1.74519 | 22943 ft | 403 kts | 174° |
| 2026-05-04 17:35 | 42.90099 | -1.73903 | 23347 ft | 406 kts | 174° |
| 2026-05-04 17:36 | 42.87304 | -1.73284 | 23724 ft | 408 kts | 174° |
| 2026-05-04 17:36 | 42.84486 | -1.72660 | 24079 ft | 411 kts | 174° |
| 2026-05-04 17:36 | 42.81655 | -1.72033 | 24432 ft | 413 kts | 174° |
| 2026-05-04 17:36 | 42.78814 | -1.71401 | 24781 ft | 414 kts | 174° |
| 2026-05-04 17:37 | 42.76001 | -1.70778 | 25122 ft | 416 kts | 174° |
| 2026-05-04 17:37 | 42.73140 | -1.70146 | 25456 ft | 418 kts | 174° |
| 2026-05-04 17:37 | 42.70262 | -1.69511 | 25795 ft | 420 kts | 174° |
| 2026-05-04 17:37 | 42.67371 | -1.68872 | 26141 ft | 422 kts | 174° |
| 2026-05-04 17:38 | 42.64471 | -1.68227 | 26481 ft | 423 kts | 174° |
| 2026-05-04 17:38 | 42.61552 | -1.67577 | 26799 ft | 426 kts | 174° |
| 2026-05-04 17:38 | 42.58626 | -1.66926 | 27099 ft | 428 kts | 174° |
| 2026-05-04 17:38 | 42.55681 | -1.66273 | 27398 ft | 430 kts | 174° |
| 2026-05-04 17:39 | 42.49752 | -1.64956 | 28004 ft | 434 kts | 174° |
| 2026-05-04 17:39 | 42.46770 | -1.64295 | 28293 ft | 435 kts | 174° |
| 2026-05-04 17:39 | 42.43771 | -1.63633 | 28573 ft | 437 kts | 174° |
| 2026-05-04 17:40 | 42.40763 | -1.62969 | 28859 ft | 439 kts | 174° |
| 2026-05-04 17:40 | 42.37746 | -1.62302 | 29101 ft | 441 kts | 175° |
| 2026-05-04 17:40 | 42.34714 | -1.61633 | 29342 ft | 443 kts | 175° |
| 2026-05-04 17:40 | 42.31666 | -1.60962 | 29611 ft | 444 kts | 175° |
| 2026-05-04 17:41 | 42.28608 | -1.60291 | 29930 ft | 445 kts | 175° |
| 2026-05-04 17:41 | 42.25562 | -1.59623 | 30265 ft | 444 kts | 175° |
| 2026-05-04 17:41 | 42.22513 | -1.58958 | 30584 ft | 443 kts | 175° |
| 2026-05-04 17:41 | 42.19475 | -1.58295 | 30905 ft | 442 kts | 175° |
| 2026-05-04 17:42 | 42.16444 | -1.57631 | 31199 ft | 441 kts | 175° |
| 2026-05-04 17:42 | 42.13452 | -1.56977 | 31494 ft | 441 kts | 175° |
| 2026-05-04 17:42 | 42.10429 | -1.56315 | 31811 ft | 440 kts | 175° |
| 2026-05-04 17:42 | 42.07406 | -1.55651 | 31960 ft | 439 kts | 175° |
| 2026-05-04 17:43 | 42.01408 | -1.54336 | 31986 ft | 435 kts | 176° |
| 2026-05-04 17:43 | 41.95426 | -1.53038 | 31982 ft | 435 kts | 176° |
| 2026-05-04 17:44 | 41.89456 | -1.51736 | 31982 ft | 435 kts | 176° |
| 2026-05-04 17:44 | 41.83483 | -1.50438 | 31981 ft | 434 kts | 176° |
| 2026-05-04 17:45 | 41.77513 | -1.49153 | 31978 ft | 434 kts | 176° |
| 2026-05-04 17:45 | 41.71588 | -1.47875 | 31960 ft | 434 kts | 176° |
| 2026-05-04 17:46 | 41.65633 | -1.46584 | 31968 ft | 433 kts | 176° |
| 2026-05-04 17:46 | 41.59683 | -1.45301 | 31969 ft | 433 kts | 176° |
| 2026-05-04 17:47 | 41.53731 | -1.44025 | 31945 ft | 433 kts | 176° |
| 2026-05-04 17:47 | 41.47780 | -1.42751 | 31953 ft | 433 kts | 176° |
| 2026-05-04 17:48 | 41.41828 | -1.41476 | 31962 ft | 433 kts | 176° |
| 2026-05-04 17:48 | 41.35862 | -1.40201 | 31968 ft | 434 kts | 176° |
| 2026-05-04 17:49 | 41.29904 | -1.38936 | 31947 ft | 433 kts | 176° |
| 2026-05-04 17:49 | 41.23940 | -1.37679 | 31957 ft | 434 kts | 176° |
| 2026-05-04 17:50 | 41.18983 | -1.36628 | 31966 ft | 434 kts | 176° |
| 2026-05-04 17:50 | 41.13022 | -1.35364 | 31969 ft | 434 kts | 176° |
| 2026-05-04 17:51 | 41.07057 | -1.34100 | 31964 ft | 434 kts | 176° |
| 2026-05-04 17:51 | 41.01096 | -1.32833 | 31972 ft | 434 kts | 176° |
| 2026-05-04 17:52 | 40.95141 | -1.31568 | 31972 ft | 433 kts | 176° |
| 2026-05-04 17:52 | 40.89185 | -1.30317 | 31948 ft | 433 kts | 177° |
| 2026-05-04 17:53 | 40.83243 | -1.28971 | 31956 ft | 434 kts | 175° |
| 2026-05-04 17:53 | 40.77316 | -1.27326 | 31964 ft | 435 kts | 174° |
| 2026-05-04 17:54 | 40.71398 | -1.25625 | 31968 ft | 435 kts | 174° |
| 2026-05-04 17:54 | 40.65477 | -1.23988 | 31964 ft | 435 kts | 175° |
| 2026-05-04 17:55 | 40.59592 | -1.22414 | 31969 ft | 434 kts | 175° |
| 2026-05-04 17:55 | 40.53670 | -1.20828 | 31967 ft | 434 kts | 175° |
| 2026-05-04 17:56 | 40.47751 | -1.19218 | 31964 ft | 434 kts | 174° |
| 2026-05-04 17:56 | 40.41834 | -1.17610 | 31952 ft | 434 kts | 175° |
| 2026-05-04 17:57 | 40.35915 | -1.16018 | 31957 ft | 434 kts | 175° |
| 2026-05-04 17:57 | 40.29992 | -1.14434 | 31928 ft | 434 kts | 175° |
| 2026-05-04 17:58 | 40.24087 | -1.12847 | 31922 ft | 433 kts | 175° |
| 2026-05-04 17:58 | 40.18182 | -1.11254 | 31934 ft | 433 kts | 175° |
| 2026-05-04 17:59 | 40.12294 | -1.09682 | 31942 ft | 432 kts | 175° |
| 2026-05-04 18:00 | 40.03447 | -1.07319 | 31941 ft | 432 kts | 175° |
| 2026-05-04 18:00 | 39.97556 | -1.05753 | 31919 ft | 432 kts | 175° |
| 2026-05-04 18:01 | 39.91661 | -1.04190 | 31940 ft | 432 kts | 175° |
| 2026-05-04 18:01 | 39.85767 | -1.02624 | 31954 ft | 432 kts | 175° |
| 2026-05-04 18:02 | 39.79912 | -1.01068 | 31550 ft | 433 kts | 175° |
| 2026-05-04 18:02 | 39.76957 | -1.00287 | 31061 ft | 433 kts | 175° |
| 2026-05-04 18:02 | 39.73997 | -0.99508 | 30568 ft | 434 kts | 175° |
| 2026-05-04 18:02 | 39.71035 | -0.98732 | 30083 ft | 433 kts | 176° |
| 2026-05-04 18:03 | 39.68079 | -0.98078 | 29527 ft | 429 kts | 178° |
| 2026-05-04 18:03 | 39.65138 | -0.97580 | 28966 ft | 424 kts | 180° |
| 2026-05-04 18:03 | 39.62224 | -0.97185 | 28415 ft | 420 kts | 181° |
| 2026-05-04 18:03 | 39.59323 | -0.96834 | 27871 ft | 416 kts | 181° |
| 2026-05-04 18:04 | 39.56450 | -0.96487 | 27311 ft | 413 kts | 181° |
| 2026-05-04 18:04 | 39.53600 | -0.96119 | 26788 ft | 410 kts | 181° |
| 2026-05-04 18:04 | 39.47962 | -0.95319 | 25773 ft | 405 kts | 180° |
| 2026-05-04 18:05 | 39.45169 | -0.94903 | 25287 ft | 403 kts | 180° |
| 2026-05-04 18:05 | 39.42399 | -0.94485 | 24798 ft | 400 kts | 180° |
| 2026-05-04 18:05 | 39.39636 | -0.94068 | 24323 ft | 398 kts | 180° |
| 2026-05-04 18:05 | 39.36898 | -0.93655 | 23857 ft | 395 kts | 180° |
| 2026-05-04 18:06 | 39.31475 | -0.92853 | 22805 ft | 388 kts | 180° |
| 2026-05-04 18:06 | 39.28805 | -0.92466 | 22269 ft | 385 kts | 180° |
| 2026-05-04 18:06 | 39.26153 | -0.92083 | 21739 ft | 383 kts | 180° |
| 2026-05-04 18:07 | 39.23513 | -0.91701 | 21220 ft | 380 kts | 180° |
| 2026-05-04 18:07 | 39.20892 | -0.91322 | 20707 ft | 377 kts | 180° |
| 2026-05-04 18:07 | 39.18289 | -0.90942 | 20206 ft | 375 kts | 180° |
| 2026-05-04 18:07 | 39.15710 | -0.90566 | 19716 ft | 372 kts | 180° |
| 2026-05-04 18:08 | 39.13142 | -0.90193 | 19229 ft | 370 kts | 180° |
| 2026-05-04 18:08 | 39.10594 | -0.89824 | 18739 ft | 367 kts | 181° |
| 2026-05-04 18:08 | 39.08060 | -0.89457 | 18266 ft | 365 kts | 181° |
| 2026-05-04 18:08 | 39.05541 | -0.89093 | 17739 ft | 364 kts | 180° |
| 2026-05-04 18:09 | 39.00569 | -0.88376 | 16700 ft | 361 kts | 180° |
| 2026-05-04 18:09 | 38.95590 | -0.87659 | 15681 ft | 359 kts | 179° |
| 2026-05-04 18:10 | 38.93115 | -0.87303 | 15185 ft | 358 kts | 179° |
| 2026-05-04 18:10 | 38.90641 | -0.86946 | 14695 ft | 357 kts | 179° |
| 2026-05-04 18:10 | 38.88174 | -0.86593 | 14204 ft | 356 kts | 179° |
| 2026-05-04 18:10 | 38.85717 | -0.86240 | 13731 ft | 356 kts | 179° |
| 2026-05-04 18:11 | 38.83259 | -0.85884 | 13208 ft | 354 kts | 178° |
| 2026-05-04 18:11 | 38.80818 | -0.85530 | 12686 ft | 352 kts | 178° |
| 2026-05-04 18:11 | 38.78388 | -0.85177 | 12172 ft | 350 kts | 178° |
| 2026-05-04 18:11 | 38.75972 | -0.84825 | 11666 ft | 348 kts | 178° |
| 2026-05-04 18:12 | 38.73571 | -0.84478 | 11175 ft | 346 kts | 178° |
| 2026-05-04 18:12 | 38.71178 | -0.84136 | 10681 ft | 344 kts | 178° |
| 2026-05-04 18:12 | 38.68805 | -0.83797 | 10199 ft | 342 kts | 178° |
| 2026-05-04 18:12 | 38.66443 | -0.83459 | 9720 ft | 340 kts | 177° |
| 2026-05-04 18:13 | 38.64097 | -0.83121 | 9180 ft | 339 kts | 177° |
| 2026-05-04 18:13 | 38.61760 | -0.82787 | 8663 ft | 337 kts | 177° |
| 2026-05-04 18:13 | 38.57359 | -0.82152 | 8179 ft | 295 kts | 178° |
| 2026-05-04 18:14 | 38.55401 | -0.82028 | 8047 ft | 268 kts | 193° |
| 2026-05-04 18:14 | 38.53729 | -0.82713 | 7921 ft | 242 kts | 215° |
| 2026-05-04 18:14 | 38.52473 | -0.84042 | 7797 ft | 231 kts | 233° |
| 2026-05-04 18:15 | 38.50288 | -0.87103 | 7552 ft | 234 kts | 228° |
| 2026-05-04 18:15 | 38.47863 | -0.89870 | 7310 ft | 234 kts | 223° |
| 2026-05-04 18:15 | 38.46570 | -0.91151 | 7180 ft | 235 kts | 220° |
| 2026-05-04 18:16 | 38.45231 | -0.92349 | 7063 ft | 236 kts | 218° |
| 2026-05-04 18:16 | 38.43836 | -0.93462 | 6937 ft | 237 kts | 215° |
| 2026-05-04 18:16 | 38.42415 | -0.94474 | 6822 ft | 238 kts | 212° |
| 2026-05-04 18:17 | 38.39404 | -0.96249 | 6580 ft | 239 kts | 206° |
| 2026-05-04 18:17 | 38.37854 | -0.97009 | 6464 ft | 239 kts | 205° |
| 2026-05-04 18:17 | 38.34652 | -0.96816 | 6203 ft | 247 kts | 143° |
| 2026-05-04 18:18 | 38.33678 | -0.95050 | 6004 ft | 247 kts | 111° |
| 2026-05-04 18:18 | 38.33312 | -0.92923 | 5803 ft | 244 kts | 99° |
| 2026-05-04 18:18 | 38.33035 | -0.90772 | 5299 ft | 250 kts | 100° |
| 2026-05-04 18:18 | 38.32740 | -0.88615 | 4914 ft | 244 kts | 101° |
| 2026-05-04 18:19 | 38.32172 | -0.84466 | 4275 ft | 232 kts | 101° |
| 2026-05-04 18:19 | 38.31900 | -0.82473 | 3966 ft | 225 kts | 102° |
| 2026-05-04 18:19 | 38.31636 | -0.80543 | 3685 ft | 219 kts | 102° |
| 2026-05-04 18:20 | 38.31377 | -0.78659 | 3403 ft | 214 kts | 103° |
| 2026-05-04 18:20 | 38.31128 | -0.76847 | 3144 ft | 202 kts | 102° |
| 2026-05-04 18:20 | 38.30891 | -0.75121 | 2861 ft | 193 kts | 101° |
| 2026-05-04 18:20 | 38.30663 | -0.73469 | 2618 ft | 185 kts | 102° |
| 2026-05-04 18:21 | 38.30448 | -0.71906 | 2378 ft | 171 kts | 101° |
| 2026-05-04 18:21 | 38.30253 | -0.70487 | 2150 ft | 156 kts | 101° |
| 2026-05-04 18:21 | 38.30068 | -0.69150 | 1963 ft | 151 kts | 101° |
| 2026-05-04 18:21 | 38.29887 | -0.67846 | 1766 ft | 149 kts | 102° |
| 2026-05-04 18:22 | 38.29707 | -0.66554 | 1557 ft | 148 kts | 101° |
| 2026-05-04 18:22 | 38.29530 | -0.65268 | 1332 ft | 147 kts | 101° |
| 2026-05-04 18:22 | 38.29352 | -0.63991 | 1136 ft | 146 kts | 102° |
| 2026-05-04 18:22 | 38.29178 | -0.62713 | 933 ft | 146 kts | 101° |
| 2026-05-04 18:23 | 38.28999 | -0.61447 | 732 ft | 146 kts | 102° |
| 2026-05-04 18:23 | 38.28819 | -0.60182 | 545 ft | 145 kts | 103° |
| 2026-05-04 18:23 | 38.28647 | -0.58920 | 409 ft | 145 kts | 102° |
| 2026-05-04 18:23 | 38.28480 | -0.57667 | 242 ft | 143 kts | 103° |
| 2026-05-04 18:24 | 38.28298 | -0.56463 | 113 ft | 127 kts | 102° |
| 2026-05-04 18:24 | 38.28184 | -0.55571 | 96 ft | 77 kts | 100° |
| 2026-05-04 18:24 | 38.28116 | -0.55084 | 81 ft | 44 kts | 94° |
| 2026-05-04 18:24 | 38.28175 | -0.54778 | 63 ft | 23 kts | 67° |
| 2026-05-04 18:25 | 38.28191 | -0.54732 | 59 ft | 0 kts | 61° |
| 2026-05-04 18:26 | 38.28206 | -0.54719 | 63 ft | 8 kts | 19° |
| 2026-05-04 18:26 | 38.28252 | -0.54787 | 71 ft | 11 kts | 280° |
| 2026-05-04 18:26 | 38.28262 | -0.54863 | 74 ft | 6 kts | 279° |
| 2026-05-04 18:26 | 38.28272 | -0.54938 | 73 ft | 11 kts | 281° |
| 2026-05-04 18:27 | 38.28289 | -0.55057 | 81 ft | 16 kts | 279° |
| 2026-05-04 18:27 | 38.28314 | -0.55192 | 89 ft | 13 kts | 304° |
| 2026-05-04 18:27 | 38.28376 | -0.55178 | 89 ft | 9 kts | 45° |
| 2026-05-04 18:27 | 38.28426 | -0.55163 | 91 ft | 8 kts | 328° |
| 2026-05-04 18:28 | 38.28444 | -0.55220 | 90 ft | 6 kts | 279° |
| 2026-05-04 18:28 | 38.28462 | -0.55243 | 89 ft | 5 kts | 346° |
| 2026-05-04 18:28 | 38.28515 | -0.55234 | 91 ft | 5 kts | 10° |
| 2026-05-04 18:28 | 38.28519 | -0.55233 | 91 ft | 0 kts | 11° |